International Virtual Aviation Organisation

Eastern Europe and Northern Asia MCD

 

Карточка аэропорта UMGG

Внимание!
Информация на этой странице в стадии наполнения.
Если вы не увидели какой-то информации, или заметили неточность - пожалуйста сообщите нам!
Спасибо!
Команда RU-STAFF
Название аэропортаGomel
Название аэропорта (англ.)Gomel
Превышение144 ft. (43.9 m.)
Координаты52°31.614', 31°1.002'
Высота перехода6000 ft
Эшелон переходаQNH>=733mm:FL80; QNH<733mm:FL90
Коды ответчика0030−0032
Зона ОрВДМинск РПИ (UMMV)
Данные METARUMGG 131900Z VRB01MPS 5000 BR OVC048 11/07 Q1018 R10/CLRD// NOSIG
Проноз погоды (TAF)UMGG 131658Z 1318/1418 15005MPS 8000 BKN010 TEMPO 1318/1404 VRB02MPS 1200 BR BKN005 SCT015CB TEMPO 1404/1406 2000 BR BKN005 TEMPO 1406/1416 17007MPS -SHRA SCT015CB TEMPO 1416/1418 VRB02MPS SCT005 SCT015CB
NOTAMshow/hide NOTAM
AWOS   TABLE

Информация о ВПП

ВПП Длина ВПП (м.) Покрытие Курс ВПП Частота ILS
102569Цементобетон103109.3
282569Цементобетон283108.7

Диспетчерские позиции

Позывной Наименование органа УВД Частота
UMGG_APPHomiel Approach126.100
UMGG_TWRHomiel Tower118.100



Спутниковое изображение